This is the latest recevied weather packets stored in our database for station/object W8CEN. If no packets are shown the sender has not sent any weather packets the latest 10 day(s).
| Time | Temp. | Humidity | Pressure | Rain* | Wind** | Luminosity | Snow |
|---|---|---|---|---|---|---|---|
| 1777581566 | 15° C | 38% | 992.9 hPa | 0 mm | - | 718 W/m² | - |
| 1777581261 | 13.33° C | 43% | 993.1 hPa | 0 mm | - | 765 W/m² | - |
| 1777580651 | 14.44° C | 39% | 992.8 hPa | 0 mm | - | 192 W/m² | - |
| 1777580347 | 15.56° C | 41% | 992.8 hPa | 0 mm | - | 549 W/m² | - |
| 1777580043 | 16.67° C | 34% | 992.7 hPa | 0 mm | - | 849 W/m² | - |
| 1777579739 | 16.67° C | 35% | 992.7 hPa | 0 mm | - | 832 W/m² | - |
| 1777579437 | 16.11° C | 39% | 992.7 hPa | 0 mm | - | 847 W/m² | - |
| 1777579133 | 16.11° C | 39% | 992.7 hPa | 0 mm | - | 274 W/m² | - |
| 1777577313 | 15° C | 40% | 993 hPa | 0 mm | - | 330 W/m² | - |
| 1777577008 | 15° C | 36% | 993 hPa | 0 mm | - | 1036 W/m² | - |
| 1777570635 | 12.78° C | 53% | 993.5 hPa | 0 mm | - | 285 W/m² | - |
| 1777568511 | 12.22° C | 55% | 993.8 hPa | 0 mm | - | 157 W/m² | - |
| 1777568207 | 12.78° C | 53% | 993.6 hPa | 0 mm | - | 235 W/m² | - |
| 1777567298 | 13.33° C | 54% | 994 hPa | 0 mm | - | 271 W/m² | - |
| 1777566088 | 13.89° C | 52% | 994 hPa | 0 mm | - | 997 W/m² | - |
| 1777565176 | 12.22° C | 59% | 994.1 hPa | 0 mm | - | 376 W/m² | - |
| 1777564263 | 12.78° C | 56% | 994.1 hPa | 0 mm | - | 167 W/m² | - |
| 1777563356 | 12.78° C | 56% | 994 hPa | 0 mm | - | 257 W/m² | - |
| 1777563052 | 12.78° C | 55% | 994 hPa | 0 mm | - | 308 W/m² | - |
| 1777562748 | 12.78° C | 55% | 994.1 hPa | 0 mm | - | 418 W/m² | - |
| 1777562447 | 12.78° C | 57% | 994 hPa | 0 mm | - | 531 W/m² | - |
| 1777561538 | 11.67° C | 62% | 993.8 hPa | 0 mm | - | 375 W/m² | - |
| 1777559418 | 9.44° C | 73% | 993.9 hPa | 0 mm | - | 253 W/m² | - |
| 1777557897 | 8.89° C | 76% | 993.5 hPa | 0 mm | - | 158 W/m² | - |
| 1777556080 | 8.89° C | 80% | 993.5 hPa | 0 mm | - | 268 W/m² | - |
* Rain latest hour (hover to see other rain measurements)
** Current wind speed in m/s (hover to see current wind gust speed)